Time;durP1;ratioP1;P1;durP2;ratioP2;P2;SDS_P1;SDS_P2;PMS_P1;PMS_P2;Temp;Humidity;BMP_temperature;BMP_pressure;BME280_temperature;BME280_humidity;BME280_pressure;Samples;Min_cycle;Max_cycle;Signal;HPM_P1;HPM_P2
2022/09/04 00:02:14;;;;;;;1.98;1.50;;;19.60;99.90;;;;;;7391960;19;20159;-84
2022/09/04 00:04:52;;;;;;;2.75;1.55;;;19.70;99.90;;;;;;7392119;19;20141;-85
2022/09/04 00:07:54;;;;;;;2.30;1.35;;;19.70;99.90;;;;;;7392554;19;20135;-83
2022/09/04 00:10:37;;;;;;;1.77;1.60;;;19.70;99.90;;;;;;7392052;19;20136;-85
2022/09/04 00:13:20;;;;;;;3.53;1.42;;;19.70;99.90;;;;;;7397022;19;20135;-79
2022/09/04 00:16:00;;;;;;;2.33;1.70;;;19.60;99.90;;;;;;7395782;19;20131;-85
2022/09/04 00:18:38;;;;;;;2.72;1.60;;;19.60;99.90;;;;;;7397505;19;20127;-84
2022/09/04 00:21:29;;;;;;;2.03;1.50;;;19.30;99.90;;;;;;7396270;19;20584;-86
2022/09/04 00:24:20;;;;;;;1.65;1.42;;;19.30;99.90;;;;;;7396927;19;20177;-86
2022/09/04 00:27:19;;;;;;;1.50;1.30;;;19.40;99.90;;;;;;7395932;19;20131;-86
2022/09/04 00:29:58;;;;;;;2.00;1.42;;;19.40;99.90;;;;;;7396154;19;20138;-82
2022/09/04 00:32:53;;;;;;;1.48;1.33;;;19.40;99.90;;;;;;7395364;19;20249;-86
2022/09/04 00:35:33;;;;;;;2.85;1.27;;;19.50;99.90;;;;;;7398730;19;20141;-84
2022/09/04 00:38:02;;;;;;;2.05;1.23;;;19.50;99.90;;;;;;7401546;19;20127;-85
2022/09/04 00:40:34;;;;;;;1.30;1.20;;;19.20;99.90;;;;;;7399794;19;20607;-86
2022/09/04 00:43:25;;;;;;;1.85;1.40;;;19.30;99.90;;;;;;7400219;19;20138;-85
2022/09/04 00:46:28;;;;;;;1.92;1.20;;;19.30;99.90;;;;;;7406344;19;20142;-85
2022/09/04 00:49:13;;;;;;;1.50;1.30;;;18.90;99.90;;;;;;7404412;19;20172;-85
2022/09/04 00:52:00;;;;;;;1.42;1.23;;;18.90;99.90;;;;;;7405901;19;20587;-84
2022/09/04 00:54:46;;;;;;;1.35;1.25;;;19.00;99.90;;;;;;7405360;19;20138;-85
2022/09/04 00:57:41;;;;;;;2.45;1.65;;;19.00;99.90;;;;;;7403603;19;20586;-84
2022/09/04 01:00:15;;;;;;;2.42;1.80;;;18.90;99.90;;;;;;7399788;19;20138;-86
2022/09/04 01:03:02;;;;;;;2.55;1.70;;;18.90;99.90;;;;;;7402642;19;20157;-85
2022/09/04 01:05:51;;;;;;;3.17;1.90;;;19.00;99.90;;;;;;7400444;19;20139;-81
2022/09/04 01:08:45;;;;;;;2.60;1.65;;;18.60;99.90;;;;;;7396542;19;20146;-83
2022/09/04 01:11:25;;;;;;;2.65;2.17;;;18.80;99.90;;;;;;7398578;19;20150;-84
2022/09/04 01:14:12;;;;;;;3.80;1.55;;;19.00;99.90;;;;;;7401058;19;20138;-86
2022/09/04 01:16:49;;;;;;;2.35;1.98;;;19.10;99.90;;;;;;7400414;19;20146;-86
2022/09/04 01:19:46;;;;;;;2.17;1.90;;;19.20;99.90;;;;;;7397290;19;20218;-85
2022/09/04 01:22:23;;;;;;;4.03;1.92;;;19.20;99.90;;;;;;7396266;19;20621;-84
2022/09/04 01:25:22;;;;;;;3.60;1.98;;;19.20;99.90;;;;;;7398440;19;20154;-86
2022/09/04 01:28:13;;;;;;;3.00;2.10;;;19.20;99.90;;;;;;7397988;19;20158;-85
2022/09/04 01:30:53;;;;;;;3.25;2.20;;;19.20;99.90;;;;;;7396467;19;20138;-86
2022/09/04 01:33:35;;;;;;;4.95;2.15;;;19.20;99.90;;;;;;7398154;19;20238;-86
2022/09/04 01:36:15;;;;;;;2.83;1.90;;;19.20;99.90;;;;;;7395097;19;20647;-84
2022/09/04 01:38:49;;;;;;;2.65;2.13;;;19.20;99.90;;;;;;7397776;19;20131;-85
2022/09/04 01:41:21;;;;;;;2.25;1.88;;;19.10;99.90;;;;;;7397231;19;20131;-85
2022/09/04 01:43:47;;;;;;;3.50;2.33;;;19.10;99.90;;;;;;7399851;19;20587;-84
2022/09/04 01:46:51;;;;;;;2.67;2.28;;;19.10;99.90;;;;;;7392489;19;20138;-83
2022/09/04 01:49:37;;;;;;;2.70;2.20;;;19.00;99.90;;;;;;7398223;19;20145;-81
2022/09/04 01:52:22;;;;;;;5.30;2.75;;;19.00;99.90;;;;;;7396831;19;20138;-85
2022/09/04 01:54:55;;;;;;;2.58;1.95;;;19.00;99.90;;;;;;7395938;19;20371;-84
2022/09/04 01:57:21;;;;;;;2.97;2.10;;;19.00;99.90;;;;;;7399203;19;20139;-85
2022/09/04 01:59:56;;;;;;;2.10;1.90;;;19.00;99.90;;;;;;7399953;19;20563;-84
2022/09/04 02:02:51;;;;;;;4.28;2.08;;;19.10;99.90;;;;;;7397740;19;20148;-84
2022/09/04 02:05:48;;;;;;;3.50;2.20;;;19.00;99.90;;;;;;7398187;19;20626;-84
2022/09/04 02:08:32;;;;;;;2.60;2.15;;;19.00;99.90;;;;;;7397597;19;20865;-85
2022/09/04 02:11:18;;;;;;;2.75;2.38;;;19.00;99.90;;;;;;7397317;19;20165;-87
2022/09/04 02:14:08;;;;;;;2.13;1.85;;;19.10;99.90;;;;;;7397128;19;20674;-85
2022/09/04 02:16:55;;;;;;;2.47;2.15;;;19.10;99.90;;;;;;7399114;19;20186;-86
2022/09/04 02:19:26;;;;;;;3.03;1.70;;;19.10;99.90;;;;;;7398350;19;20198;-84
2022/09/04 02:22:14;;;;;;;4.38;2.10;;;19.00;99.90;;;;;;7397145;19;20151;-85
2022/09/04 02:24:52;;;;;;;2.13;1.80;;;18.90;99.90;;;;;;7397547;19;20150;-84
2022/09/04 02:27:39;;;;;;;2.92;2.00;;;19.00;99.90;;;;;;7399493;19;20141;-83
2022/09/04 02:30:12;;;;;;;2.55;2.03;;;18.90;99.90;;;;;;7396457;19;20159;-85
2022/09/04 02:32:48;;;;;;;3.08;2.15;;;18.90;99.90;;;;;;7399006;19;20138;-86
2022/09/04 02:35:19;;;;;;;2.80;1.77;;;18.90;99.90;;;;;;7396072;19;20972;-85
2022/09/04 02:38:19;;;;;;;1.98;1.77;;;18.90;99.90;;;;;;7400244;19;20127;-83
2022/09/04 02:41:03;;;;;;;2.42;1.83;;;18.90;99.90;;;;;;7397410;19;20206;-85
2022/09/04 02:43:57;;;;;;;2.88;1.80;;;18.90;99.90;;;;;;7397686;19;20131;-84
2022/09/04 02:46:47;;;;;;;2.25;1.73;;;18.90;99.90;;;;;;7398651;19;20479;-85
2022/09/04 02:49:23;;;;;;;2.58;1.80;;;18.90;99.90;;;;;;7394084;19;20138;-84
2022/09/04 02:52:27;;;;;;;2.30;1.80;;;18.90;99.90;;;;;;7395338;19;20169;-76
2022/09/04 02:54:58;;;;;;;3.17;1.80;;;18.90;99.90;;;;;;7393963;19;20138;-75
2022/09/04 02:57:38;;;;;;;2.10;1.67;;;19.00;99.90;;;;;;7396794;19;20686;-78
2022/09/04 03:00:18;;;;;;;4.88;1.83;;;19.00;99.90;;;;;;7394683;19;20141;-76
2022/09/04 03:03:13;;;;;;;2.75;1.83;;;18.90;99.90;;;;;;7395130;19;20240;-77
2022/09/04 03:06:03;;;;;;;2.08;1.73;;;18.40;99.90;;;;;;7395249;19;20146;-76
2022/09/04 03:08:44;;;;;;;3.75;1.73;;;18.30;99.90;;;;;;7393595;19;20527;-75
2022/09/04 03:11:23;;;;;;;1.55;1.17;;;18.40;99.90;;;;;;7394709;19;20182;-76
2022/09/04 03:13:58;;;;;;;2.17;1.85;;;18.40;99.90;;;;;;7395659;19;20594;-76
2022/09/04 03:16:42;;;;;;;3.30;2.05;;;18.50;99.90;;;;;;7394521;19;20489;-76
2022/09/04 03:19:28;;;;;;;2.70;1.80;;;18.30;99.90;;;;;;7393217;19;20142;-76
2022/09/04 03:22:15;;;;;;;2.20;1.90;;;18.30;99.90;;;;;;7395665;19;20139;-77
2022/09/04 03:25:02;;;;;;;2.05;1.70;;;18.50;99.90;;;;;;7396954;19;20161;-77
2022/09/04 03:27:32;;;;;;;2.13;1.70;;;18.50;99.90;;;;;;7394830;19;20496;-75
2022/09/04 03:30:05;;;;;;;1.55;1.40;;;18.50;99.90;;;;;;7392886;19;20486;-75
2022/09/04 03:33:01;;;;;;;2.10;1.60;;;18.60;99.90;;;;;;7394277;19;20623;-76
2022/09/04 03:35:39;;;;;;;1.77;1.55;;;18.70;99.90;;;;;;7392942;19;20518;-77
2022/09/04 03:38:32;;;;;;;1.95;1.70;;;18.70;99.90;;;;;;7392065;19;20598;-77
2022/09/04 03:41:17;;;;;;;2.42;1.90;;;18.70;99.90;;;;;;7394662;19;20143;-76
2022/09/04 03:44:07;;;;;;;2.25;1.60;;;18.60;99.90;;;;;;7394150;19;20150;-75
2022/09/04 03:47:01;;;;;;;1.77;1.65;;;18.40;99.90;;;;;;7393762;19;20211;-75
2022/09/04 03:49:42;;;;;;;5.00;1.85;;;18.50;99.90;;;;;;7392378;19;20153;-76
2022/09/04 03:52:26;;;;;;;2.22;1.60;;;18.40;99.90;;;;;;7395010;19;20134;-76
2022/09/04 03:55:02;;;;;;;1.95;1.75;;;18.50;99.90;;;;;;7393335;19;20138;-76
2022/09/04 03:57:48;;;;;;;2.15;1.65;;;18.50;99.90;;;;;;7392582;19;20470;-76
2022/09/04 04:00:18;;;;;;;2.95;1.83;;;18.50;99.90;;;;;;7390457;19;20161;-76
2022/09/04 04:03:03;;;;;;;2.38;1.92;;;18.50;99.90;;;;;;7392056;19;20143;-76
2022/09/04 04:06:07;;;;;;;4.95;1.85;;;18.50;99.90;;;;;;7393134;19;20611;-75
2022/09/04 04:08:58;;;;;;;1.77;1.60;;;18.60;99.90;;;;;;7390930;19;20146;-75
2022/09/04 04:11:49;;;;;;;1.80;1.42;;;18.40;99.90;;;;;;7389881;19;20190;-76
2022/09/04 04:14:37;;;;;;;3.88;1.77;;;18.40;99.90;;;;;;7393278;19;20156;-76
2022/09/04 04:17:36;;;;;;;1.73;1.63;;;18.50;99.90;;;;;;7390087;19;20635;-77
2022/09/04 04:20:29;;;;;;;3.20;1.50;;;18.40;99.90;;;;;;7390944;19;20622;-76
2022/09/04 04:23:35;;;;;;;3.63;1.50;;;18.50;99.90;;;;;;7392185;19;20722;-76
2022/09/04 04:26:12;;;;;;;2.88;1.75;;;18.40;99.90;;;;;;7393984;19;20202;-77
2022/09/04 04:28:58;;;;;;;2.47;1.88;;;18.40;99.90;;;;;;7391704;19;20150;-76
2022/09/04 04:32:09;;;;;;;1.55;1.45;;;18.40;99.90;;;;;;7394944;19;20138;-76
2022/09/04 04:35:07;;;;;;;4.43;1.60;;;18.40;99.90;;;;;;7392972;19;20161;-76
2022/09/04 04:37:58;;;;;;;4.00;1.90;;;18.40;99.90;;;;;;7392243;19;20619;-75
2022/09/04 04:40:31;;;;;;;1.77;1.55;;;18.40;99.90;;;;;;7391920;19;20223;-75
2022/09/04 04:43:24;;;;;;;2.83;1.40;;;18.50;99.90;;;;;;7391407;19;20154;-76
2022/09/04 04:46:12;;;;;;;4.28;1.63;;;18.50;99.90;;;;;;7392297;19;20166;-75
2022/09/04 04:48:51;;;;;;;1.75;1.60;;;18.40;99.90;;;;;;7391940;19;20138;-76
2022/09/04 04:51:44;;;;;;;3.63;1.88;;;18.40;99.90;;;;;;7392321;19;20157;-75
2022/09/04 04:54:40;;;;;;;1.95;1.52;;;18.30;99.90;;;;;;7391182;19;20149;-75
2022/09/04 04:57:15;;;;;;;1.70;1.40;;;18.30;99.90;;;;;;7390646;19;20241;-76
2022/09/04 05:00:14;;;;;;;3.45;2.15;;;18.20;99.90;;;;;;7390513;19;20159;-76
2022/09/04 05:02:54;;;;;;;2.95;1.60;;;18.20;99.90;;;;;;7393148;19;20173;-76
2022/09/04 05:05:45;;;;;;;2.38;1.67;;;18.30;99.90;;;;;;7393224;19;20142;-76
2022/09/04 05:08:32;;;;;;;2.00;1.80;;;18.30;99.90;;;;;;7389380;19;20146;-75
2022/09/04 05:11:35;;;;;;;2.67;1.65;;;18.30;99.90;;;;;;7392418;19;20186;-76
2022/09/04 05:14:16;;;;;;;2.20;1.80;;;18.30;99.90;;;;;;7392824;19;20575;-75
2022/09/04 05:16:54;;;;;;;3.35;1.70;;;18.40;99.90;;;;;;7391898;19;20490;-76
2022/09/04 05:19:26;;;;;;;3.17;1.90;;;18.40;99.90;;;;;;7389606;19;20177;-76
2022/09/04 05:22:03;;;;;;;2.53;1.98;;;18.50;99.90;;;;;;7390736;19;20857;-75
2022/09/04 05:24:53;;;;;;;3.05;2.08;;;18.50;99.90;;;;;;7390451;19;20149;-75
2022/09/04 05:27:19;;;;;;;1.70;1.60;;;18.40;99.90;;;;;;7389583;19;20131;-76
2022/09/04 05:29:54;;;;;;;3.90;1.92;;;18.40;99.90;;;;;;7396674;19;20497;-75
2022/09/04 05:32:39;;;;;;;2.22;1.92;;;18.40;99.90;;;;;;7397132;19;20156;-76
2022/09/04 05:35:17;;;;;;;2.60;2.13;;;18.40;99.90;;;;;;7399367;19;20205;-75
2022/09/04 05:38:18;;;;;;;3.05;1.70;;;18.40;99.90;;;;;;7399252;19;20156;-75
2022/09/04 05:40:52;;;;;;;2.70;1.60;;;18.30;99.90;;;;;;7396969;19;20142;-75
2022/09/04 05:43:37;;;;;;;2.03;1.83;;;18.20;99.90;;;;;;7397440;19;20162;-75
2022/09/04 05:46:16;;;;;;;3.13;1.77;;;18.00;99.90;;;;;;7399469;19;20135;-75
2022/09/04 05:48:52;;;;;;;3.15;1.92;;;18.00;99.90;;;;;;7399415;19;20494;-75
2022/09/04 05:51:21;;;;;;;4.00;1.80;;;18.10;99.90;;;;;;7399247;19;20631;-76
2022/09/04 05:54:09;;;;;;;3.25;1.70;;;18.30;99.90;;;;;;7399687;19;20146;-76
2022/09/04 05:56:43;;;;;;;2.83;1.95;;;18.50;99.90;;;;;;7396152;19;20146;-75
2022/09/04 05:59:33;;;;;;;2.20;1.90;;;18.40;99.90;;;;;;7397467;19;20521;-76
2022/09/04 06:02:26;;;;;;;4.30;2.10;;;18.40;99.90;;;;;;7397814;19;20138;-75
2022/09/04 06:05:21;;;;;;;2.33;1.85;;;18.40;99.90;;;;;;7397138;19;20145;-76
2022/09/04 06:07:59;;;;;;;2.22;1.90;;;18.40;99.90;;;;;;7398260;19;20173;-76
2022/09/04 06:10:46;;;;;;;5.43;2.28;;;18.40;99.90;;;;;;7398533;19;20164;-76
2022/09/04 06:13:37;;;;;;;3.15;1.95;;;18.50;99.90;;;;;;7395603;19;20597;-76
2022/09/04 06:16:31;;;;;;;1.98;1.52;;;18.40;99.90;;;;;;7394181;19;20161;-75
2022/09/04 06:19:23;;;;;;;2.17;1.92;;;18.30;99.90;;;;;;7395559;19;20497;-75
2022/09/04 06:21:51;;;;;;;3.05;2.40;;;18.20;99.90;;;;;;7393945;19;20158;-76
2022/09/04 06:24:35;;;;;;;2.95;2.10;;;18.20;99.90;;;;;;7396468;19;20780;-74
2022/09/04 06:27:25;;;;;;;2.55;2.22;;;18.30;99.90;;;;;;7395414;19;20138;-75
2022/09/04 06:30:07;;;;;;;3.72;2.78;;;18.30;99.90;;;;;;7394347;19;20159;-75
2022/09/04 06:33:16;;;;;;;4.28;2.53;;;18.30;99.90;;;;;;7394826;19;20722;-75
2022/09/04 06:35:58;;;;;;;2.47;2.22;;;18.40;99.90;;;;;;7394143;19;20149;-74
2022/09/04 06:38:30;;;;;;;2.80;1.95;;;18.40;99.90;;;;;;7395395;19;20146;-75
2022/09/04 06:41:14;;;;;;;2.20;2.00;;;18.50;99.90;;;;;;7394686;19;20249;-75
2022/09/04 06:43:46;;;;;;;2.38;1.90;;;18.60;99.90;;;;;;7394898;19;20147;-75
2022/09/04 06:46:41;;;;;;;3.40;2.30;;;18.50;99.90;;;;;;7395883;19;20153;-75
2022/09/04 06:49:21;;;;;;;2.50;2.30;;;18.40;99.90;;;;;;7395332;19;20169;-75
2022/09/04 06:52:13;;;;;;;3.38;1.73;;;18.50;99.90;;;;;;7395542;19;20503;-74
2022/09/04 06:54:59;;;;;;;2.88;2.20;;;18.30;99.90;;;;;;7394403;19;20581;-76
2022/09/04 06:57:27;;;;;;;2.28;2.05;;;18.30;99.90;;;;;;7394546;19;20157;-76
2022/09/04 07:00:07;;;;;;;3.63;1.98;;;18.40;99.90;;;;;;7395993;19;20127;-76
2022/09/04 07:03:00;;;;;;;2.20;2.00;;;18.40;99.90;;;;;;7392948;19;20192;-75
2022/09/04 07:05:52;;;;;;;2.25;2.05;;;18.20;99.90;;;;;;7396163;19;20205;-75
2022/09/04 07:08:24;;;;;;;3.53;2.35;;;18.10;99.90;;;;;;7394374;19;20146;-76
2022/09/04 07:11:23;;;;;;;4.18;2.55;;;17.90;99.90;;;;;;7394555;19;20143;-77
2022/09/04 07:14:19;;;;;;;5.22;2.42;;;17.90;99.90;;;;;;7390598;19;20163;-76
2022/09/04 07:17:22;;;;;;;4.40;2.28;;;18.00;99.90;;;;;;7392194;19;20607;-75
2022/09/04 07:20:10;;;;;;;3.35;1.70;;;18.10;99.90;;;;;;7389646;19;20155;-75
2022/09/04 07:22:36;;;;;;;3.30;2.15;;;18.00;99.90;;;;;;7392232;19;20162;-75
2022/09/04 07:25:39;;;;;;;1.95;1.70;;;18.30;99.90;;;;;;7391954;19;20720;-76
2022/09/04 07:28:11;;;;;;;2.88;2.00;;;18.90;99.90;;;;;;7386189;19;20138;-75
2022/09/04 07:31:19;;;;;;;2.47;2.05;;;19.30;99.90;;;;;;7390807;19;20134;-76
2022/09/04 07:34:02;;;;;;;2.28;2.00;;;19.50;99.90;;;;;;7384079;19;20263;-75
2022/09/04 07:36:58;;;;;;;2.20;2.00;;;19.60;99.90;;;;;;7388386;19;20181;-76
2022/09/04 07:39:37;;;;;;;2.75;2.55;;;19.70;99.90;;;;;;7390183;19;20135;-74
2022/09/04 07:42:18;;;;;;;2.28;2.08;;;19.80;99.90;;;;;;7389862;19;20155;-74
2022/09/04 07:45:21;;;;;;;2.08;1.88;;;20.00;99.90;;;;;;7390443;19;20146;-75
2022/09/04 07:48:12;;;;;;;2.55;1.73;;;20.40;99.90;;;;;;7389925;19;20146;-74
2022/09/04 07:51:08;;;;;;;2.88;1.80;;;20.90;99.90;;;;;;7387536;19;20615;-75
2022/09/04 07:54:12;;;;;;;4.10;2.00;;;21.60;99.90;;;;;;7384670;19;20150;-75
2022/09/04 07:56:44;;;;;;;2.63;1.92;;;22.10;99.90;;;;;;7386844;19;20272;-73
2022/09/04 07:59:37;;;;;;;1.70;1.60;;;22.40;99.90;;;;;;7389543;19;20127;-75
2022/09/04 08:02:21;;;;;;;2.67;1.73;;;22.60;99.90;;;;;;7391339;19;20130;-75
2022/09/04 08:05:18;;;;;;;2.10;1.88;;;22.70;99.90;;;;;;7391930;19;20236;-78
2022/09/04 08:08:12;;;;;;;2.85;1.80;;;22.70;99.90;;;;;;7392383;19;20148;-80
2022/09/04 08:10:59;;;;;;;2.88;1.98;;;22.70;99.90;;;;;;7387706;19;20150;-79
2022/09/04 08:14:08;;;;;;;1.98;1.77;;;22.70;99.90;;;;;;7394287;19;20149;-80
2022/09/04 08:17:23;;;;;;;3.30;1.83;;;22.80;99.90;;;;;;7389899;19;20182;-79
2022/09/04 08:20:02;;;;;;;2.05;1.77;;;22.70;99.90;;;;;;7391677;19;20671;-81
2022/09/04 08:22:57;;;;;;;1.65;1.55;;;22.70;99.90;;;;;;7395019;19;20152;-76
2022/09/04 08:25:44;;;;;;;1.70;1.60;;;22.50;99.90;;;;;;7389533;19;20162;-76
2022/09/04 08:28:36;;;;;;;2.25;1.60;;;22.40;99.90;;;;;;7390543;19;20187;-73
2022/09/04 08:31:14;;;;;;;2.22;1.75;;;22.50;99.90;;;;;;7388615;19;20150;-77
2022/09/04 08:34:09;;;;;;;2.38;1.77;;;22.60;99.90;;;;;;7390464;19;20168;-77
2022/09/04 08:37:00;;;;;;;1.75;1.38;;;22.70;99.90;;;;;;7386846;19;20201;-75
2022/09/04 08:39:41;;;;;;;3.72;1.70;;;22.90;99.90;;;;;;7391607;19;20165;-74
2022/09/04 08:42:26;;;;;;;2.97;1.70;;;23.00;99.90;;;;;;7392160;19;20575;-75
2022/09/04 08:45:29;;;;;;;2.35;1.65;;;22.90;99.90;;;;;;7394257;19;20139;-76
2022/09/04 08:48:32;;;;;;;1.90;1.42;;;22.70;99.90;;;;;;7393576;19;20591;-76
2022/09/04 08:51:22;;;;;;;2.47;2.05;;;22.80;99.90;;;;;;7393417;19;20130;-78
2022/09/04 08:54:26;;;;;;;2.47;1.42;;;22.80;99.90;;;;;;7391501;19;20141;-75
2022/09/04 08:57:23;;;;;;;1.75;1.30;;;22.90;99.90;;;;;;7386751;19;20754;-76
2022/09/04 09:00:00;;;;;;;2.85;1.98;;;22.80;99.90;;;;;;7383562;19;20146;-75
2022/09/04 09:03:10;;;;;;;2.50;1.40;;;22.80;99.90;;;;;;7388054;19;20617;-75
2022/09/04 09:06:18;;;;;;;1.65;1.50;;;22.90;99.90;;;;;;7394632;19;20175;-75
2022/09/04 09:09:05;;;;;;;1.90;1.48;;;23.10;99.90;;;;;;7396881;19;20130;-74
2022/09/04 09:12:10;;;;;;;1.67;1.58;;;23.10;99.90;;;;;;7396386;19;20157;-76
2022/09/04 09:14:45;;;;;;;1.52;1.42;;;23.10;99.90;;;;;;7395884;19;20379;-77
2022/09/04 09:17:12;;;;;;;1.60;1.50;;;23.10;99.90;;;;;;7389405;19;20138;-78
2022/09/04 09:19:38;;;;;;;2.50;1.65;;;23.10;99.90;;;;;;7395013;19;20142;-77
2022/09/04 09:22:37;;;;;;;1.33;1.23;;;23.10;99.90;;;;;;7397109;19;20562;-76
2022/09/04 09:25:56;;;;;;;1.42;1.33;;;23.10;99.90;;;;;;7395941;19;20294;-78
2022/09/04 09:28:27;;;;;;;1.90;1.67;;;23.10;99.90;;;;;;7395249;19;20135;-77
2022/09/04 09:31:20;;;;;;;2.50;1.40;;;23.20;99.90;;;;;;7399897;19;20190;-78
2022/09/04 09:34:13;;;;;;;1.20;1.10;;;23.20;99.90;;;;;;7395896;19;20139;-93
2022/09/04 09:37:17;;;;;;;1.60;1.40;;;23.30;99.90;;;;;;7395468;19;20157;-79
2022/09/04 09:40:14;;;;;;;1.88;1.35;;;23.40;99.90;;;;;;7397823;19;20172;-81
2022/09/04 09:42:59;;;;;;;2.83;1.10;;;23.40;99.90;;;;;;7397596;19;20154;-81
2022/09/04 09:46:04;;;;;;;1.20;1.10;;;23.40;99.90;;;;;;7395656;19;20472;-83
2022/09/04 09:48:38;;;;;;;2.20;1.25;;;23.20;99.90;;;;;;7395295;19;20151;-83
2022/09/04 09:51:42;;;;;;;1.00;0.90;;;23.20;99.90;;;;;;7395153;19;20507;-82
2022/09/04 09:54:37;;;;;;;1.55;0.82;;;23.20;99.90;;;;;;7395701;19;20230;-79
2022/09/04 09:57:24;;;;;;;0.95;0.82;;;23.30;99.90;;;;;;7399126;19;20482;-81
2022/09/04 10:00:21;;;;;;;2.75;1.15;;;23.40;99.90;;;;;;7399571;19;20139;-79
2022/09/04 10:03:18;;;;;;;1.58;1.20;;;23.70;99.90;;;;;;7394757;19;20143;-79
2022/09/04 10:06:20;;;;;;;0.90;0.80;;;24.00;99.90;;;;;;7397855;19;20147;-81
2022/09/04 10:08:55;;;;;;;1.38;0.82;;;24.30;99.90;;;;;;7398301;19;20154;-82
2022/09/04 10:11:35;;;;;;;1.00;0.90;;;24.60;99.90;;;;;;7395662;19;20233;-82
2022/09/04 10:14:13;;;;;;;1.63;1.08;;;24.40;99.90;;;;;;7400539;19;20135;-84
2022/09/04 10:16:44;;;;;;;0.93;0.90;;;24.30;99.90;;;;;;7393812;19;20148;-79
2022/09/04 10:19:45;;;;;;;1.95;1.10;;;24.30;99.90;;;;;;7395668;19;20210;-79
2022/09/04 10:22:53;;;;;;;0.82;0.82;;;24.10;99.90;;;;;;7397079;19;20547;-78
2022/09/04 10:26:07;;;;;;;1.30;1.20;;;23.90;99.90;;;;;;7396884;19;20146;-78
2022/09/04 10:28:39;;;;;;;1.20;1.00;;;23.70;99.90;;;;;;7394997;19;20165;-78
2022/09/04 10:31:39;;;;;;;1.08;0.93;;;23.70;99.90;;;;;;7396926;19;20150;-80
2022/09/04 10:34:22;;;;;;;2.13;1.10;;;23.70;99.90;;;;;;7398110;19;20134;-83
2022/09/04 10:37:30;;;;;;;2.22;1.27;;;23.80;99.90;;;;;;7396556;19;20496;-82
2022/09/04 10:43:07;;;;;;;1.63;1.10;;;23.90;99.90;;;;;;7397056;19;20153;-81
2022/09/04 10:45:55;;;;;;;1.33;0.90;;;24.00;99.90;;;;;;7396256;19;20181;-83
2022/09/04 10:48:38;;;;;;;2.08;0.85;;;24.20;99.90;;;;;;7397880;19;20142;-82
2022/09/04 10:51:35;;;;;;;2.63;1.30;;;24.40;99.90;;;;;;7400781;19;20135;-80
2022/09/04 10:54:28;;;;;;;1.92;1.20;;;24.60;99.90;;;;;;7401865;19;20134;-81
2022/09/04 10:57:24;;;;;;;1.65;1.00;;;24.70;99.90;;;;;;7401382;19;20139;-83
2022/09/04 11:00:36;;;;;;;2.40;1.02;;;24.70;99.90;;;;;;7400306;19;20154;-84
2022/09/04 11:03:05;;;;;;;2.42;1.00;;;24.50;99.90;;;;;;7400085;19;20169;-83
2022/09/04 11:05:59;;;;;;;1.42;1.00;;;24.40;99.90;;;;;;7402087;19;20138;-79
2022/09/04 11:08:44;;;;;;;1.08;0.98;;;24.20;99.90;;;;;;7400149;19;20595;-81
2022/09/04 11:11:16;;;;;;;2.50;2.10;;;24.10;99.90;;;;;;7399617;19;20182;-80
2022/09/04 11:14:24;;;;;;;2.72;1.58;;;24.10;99.90;;;;;;7396883;19;20462;-78
2022/09/04 11:17:23;;;;;;;2.58;2.00;;;24.00;99.90;;;;;;7392874;19;20150;-78
2022/09/04 11:20:33;;;;;;;4.38;3.65;;;24.00;99.90;;;;;;7396070;19;20142;-79
2022/09/04 11:23:21;;;;;;;2.15;1.05;;;24.00;99.90;;;;;;7397252;19;20158;-79
2022/09/04 11:26:14;;;;;;;0.80;0.80;;;24.20;99.90;;;;;;7397827;19;20147;-80
2022/09/04 11:29:19;;;;;;;3.55;1.00;;;24.10;99.90;;;;;;7394111;19;20221;-80
2022/09/04 11:31:54;;;;;;;1.60;0.70;;;24.10;99.90;;;;;;7392699;19;20653;-81
2022/09/04 11:34:47;;;;;;;1.75;0.90;;;24.20;99.90;;;;;;7396718;19;20190;-77
2022/09/04 11:37:55;;;;;;;0.80;0.80;;;24.40;99.90;;;;;;7396905;19;20153;-80
2022/09/04 11:40:42;;;;;;;3.50;0.90;;;24.50;99.90;;;;;;7392506;19;20150;-80
2022/09/04 11:43:19;;;;;;;2.65;1.20;;;24.70;99.90;;;;;;7394776;19;20151;-80
2022/09/04 11:46:12;;;;;;;1.20;1.08;;;24.60;99.90;;;;;;7390995;19;20145;-79
2022/09/04 11:49:08;;;;;;;1.98;1.20;;;24.70;99.90;;;;;;7389733;19;20154;-79
2022/09/04 11:51:59;;;;;;;3.53;1.60;;;25.00;99.90;;;;;;7394881;19;20142;-80
2022/09/04 11:54:36;;;;;;;2.30;0.85;;;25.00;99.90;;;;;;7393923;19;20147;-79
2022/09/04 11:57:30;;;;;;;0.80;0.80;;;25.00;99.90;;;;;;7391340;19;20174;-78
2022/09/04 12:00:10;;;;;;;0.93;0.90;;;25.00;99.90;;;;;;7393572;19;20139;-78
2022/09/04 12:03:09;;;;;;;2.33;1.00;;;25.10;99.90;;;;;;7394715;19;20161;-80
2022/09/04 12:06:05;;;;;;;2.75;1.02;;;25.20;99.90;;;;;;7393658;19;20147;-80
2022/09/04 12:08:56;;;;;;;0.85;0.82;;;25.30;99.90;;;;;;7392448;19;20146;-80
2022/09/04 12:11:30;;;;;;;2.35;1.00;;;25.30;99.90;;;;;;7392045;19;20182;-78
2022/09/04 12:14:30;;;;;;;1.20;0.80;;;25.20;99.90;;;;;;7391930;19;20214;-79
2022/09/04 12:17:34;;;;;;;0.80;0.80;;;25.00;99.90;;;;;;7388546;19;20135;-79
2022/09/04 12:20:13;;;;;;;1.05;0.95;;;24.90;99.90;;;;;;7393671;19;20138;-80
2022/09/04 12:22:51;;;;;;;1.13;0.90;;;24.90;99.90;;;;;;7391432;19;20154;-78
2022/09/04 12:26:00;;;;;;;1.05;0.77;;;24.80;99.90;;;;;;7386629;19;20130;-79
2022/09/04 12:29:04;;;;;;;1.27;0.73;;;24.90;99.90;;;;;;7389408;19;20165;-79
2022/09/04 12:31:41;;;;;;;1.20;1.10;;;25.00;99.90;;;;;;7383332;19;20185;-80
2022/09/04 12:34:22;;;;;;;1.50;1.05;;;25.30;99.90;;;;;;7385580;19;20126;-81
2022/09/04 12:37:12;;;;;;;3.00;0.90;;;25.50;99.90;;;;;;7385451;19;20131;-83
2022/09/04 12:39:57;;;;;;;2.80;1.13;;;25.70;99.90;;;;;;7384324;19;20146;-80
2022/09/04 12:42:51;;;;;;;1.00;0.80;;;25.90;99.90;;;;;;7389157;19;20250;-84
2022/09/04 12:45:35;;;;;;;1.15;0.90;;;25.90;99.90;;;;;;7388412;19;20158;-83
2022/09/04 12:48:41;;;;;;;1.10;0.90;;;26.00;99.90;;;;;;7389059;19;20154;-85
2022/09/04 12:51:20;;;;;;;0.70;0.70;;;26.00;99.90;;;;;;7389070;19;20187;-85
2022/09/04 12:53:54;;;;;;;1.15;0.88;;;25.90;99.90;;;;;;7391782;19;20166;-85
2022/09/04 12:57:10;;;;;;;1.15;1.00;;;25.80;99.90;;;;;;7386739;19;20553;-80
2022/09/04 12:59:46;;;;;;;2.05;1.10;;;26.10;99.90;;;;;;7388274;19;20158;-82
2022/09/04 13:02:18;;;;;;;1.23;0.98;;;26.20;99.90;;;;;;7390859;19;20134;-88
2022/09/04 13:05:08;;;;;;;1.45;0.80;;;26.10;99.90;;;;;;7393023;19;20149;-80
2022/09/04 13:08:02;;;;;;;1.40;0.60;;;25.60;99.90;;;;;;7387399;19;20189;-82
2022/09/04 13:10:50;;;;;;;3.53;1.60;;;25.30;99.90;;;;;;7387930;19;20576;-80
2022/09/04 13:13:43;;;;;;;1.40;1.10;;;25.40;99.90;;;;;;7391539;19;20159;-78
2022/09/04 13:16:31;;;;;;;0.90;0.90;;;25.60;99.90;;;;;;7389818;19;20147;-78
2022/09/04 13:19:34;;;;;;;2.15;0.95;;;25.80;99.90;;;;;;7390410;19;20147;-79
2022/09/04 13:22:19;;;;;;;0.68;0.68;;;25.90;99.90;;;;;;7393597;19;20138;-80
2022/09/04 13:24:56;;;;;;;2.92;1.50;;;26.00;99.90;;;;;;7391958;19;20134;-79
2022/09/04 13:27:33;;;;;;;1.20;1.10;;;26.20;99.90;;;;;;7392216;19;20131;-79
2022/09/04 13:30:06;;;;;;;1.83;1.05;;;26.20;99.90;;;;;;7384251;19;20587;-79
2022/09/04 13:32:51;;;;;;;1.65;0.77;;;26.10;99.90;;;;;;7383802;19;20177;-78
2022/09/04 13:35:40;;;;;;;1.20;1.10;;;26.10;99.90;;;;;;7390149;19;20139;-78
2022/09/04 13:38:27;;;;;;;1.85;1.10;;;26.20;99.90;;;;;;7382808;19;20165;-78
2022/09/04 13:41:15;;;;;;;3.15;0.88;;;26.30;99.90;;;;;;7384818;19;20147;-78
2022/09/04 13:44:19;;;;;;;3.70;1.67;;;26.20;99.90;;;;;;7384089;19;20171;-78
2022/09/04 13:47:07;;;;;;;1.75;1.63;;;26.30;99.90;;;;;;7388610;19;20157;-78
2022/09/04 13:49:48;;;;;;;1.33;1.20;;;26.40;99.90;;;;;;7388500;19;20150;-77
2022/09/04 13:52:23;;;;;;;0.98;0.88;;;26.50;99.90;;;;;;7395068;19;20202;-76
2022/09/04 13:55:01;;;;;;;1.40;1.08;;;26.50;99.90;;;;;;7395946;19;20138;-77
2022/09/04 13:57:41;;;;;;;1.42;1.00;;;26.50;99.90;;;;;;7395629;19;20633;-76
2022/09/04 14:00:09;;;;;;;0.75;0.70;;;26.40;99.90;;;;;;7398848;19;20134;-77
2022/09/04 14:02:38;;;;;;;1.15;0.90;;;26.30;99.90;;;;;;7391749;19;20137;-77
2022/09/04 14:05:17;;;;;;;2.90;2.40;;;26.10;99.90;;;;;;7397532;19;20881;-78
2022/09/04 14:07:48;;;;;;;4.13;1.15;;;25.90;99.90;;;;;;7397182;19;20464;-78
2022/09/04 14:10:18;;;;;;;1.17;1.02;;;25.90;99.90;;;;;;7395641;19;20158;-77
2022/09/04 14:13:23;;;;;;;1.58;1.30;;;26.00;99.90;;;;;;7393973;19;20142;-78
2022/09/04 14:16:10;;;;;;;1.70;1.40;;;26.00;99.90;;;;;;7392891;19;20150;-77
2022/09/04 14:18:44;;;;;;;1.90;1.70;;;26.10;99.90;;;;;;7390312;19;20138;-77
2022/09/04 14:21:31;;;;;;;2.55;1.27;;;26.20;99.90;;;;;;7395858;19;20131;-77
2022/09/04 14:24:18;;;;;;;1.95;1.00;;;26.10;99.90;;;;;;7397053;19;20130;-76
2022/09/04 14:26:51;;;;;;;2.78;0.90;;;26.00;99.90;;;;;;7394722;19;20482;-76
2022/09/04 14:30:09;;;;;;;1.60;1.50;;;25.80;99.90;;;;;;7394109;19;20664;-77
2022/09/04 14:32:53;;;;;;;1.23;1.00;;;25.70;99.90;;;;;;7393840;19;20637;-76
2022/09/04 14:35:36;;;;;;;1.30;1.20;;;25.60;99.90;;;;;;7394339;19;20139;-78